Time;durP1;ratioP1;P1;durP2;ratioP2;P2;SDS_P1;SDS_P2;PMS_P1;PMS_P2;Temp;Humidity;BMP_temperature;BMP_pressure;BME280_temperature;BME280_humidity;BME280_pressure;Samples;Min_cycle;Max_cycle;Signal;HPM_P1;HPM_P2
2022/09/30 00:00:01;;;;;;;7.88;5.75;;;8.30;99.90;;;;;;2095542;28;20107;-70
2022/09/30 00:01:02;;;;;;;7.70;5.50;;;8.30;99.90;;;;;;2094694;28;20036;-70
2022/09/30 00:02:02;;;;;;;7.95;5.90;;;8.30;99.90;;;;;;2095891;28;20095;-70
2022/09/30 00:03:03;;;;;;;6.00;5.28;;;8.30;99.90;;;;;;2094422;28;20070;-70
2022/09/30 00:04:04;;;;;;;5.50;5.00;;;8.30;99.90;;;;;;2092879;28;20732;-70
2022/09/30 00:05:05;;;;;;;6.55;5.53;;;8.20;99.90;;;;;;2093336;28;20485;-70
2022/09/30 00:06:06;;;;;;;6.70;5.25;;;8.20;99.90;;;;;;2094269;28;20439;-70
2022/09/30 00:07:06;;;;;;;6.22;5.50;;;8.20;99.90;;;;;;2094346;28;20116;-70
2022/09/30 00:08:07;;;;;;;8.18;5.90;;;8.20;99.90;;;;;;2093017;28;20033;-70
2022/09/30 00:09:10;;;;;;;7.63;6.07;;;8.20;99.90;;;;;;2094963;28;20040;-70
2022/09/30 00:10:11;;;;;;;8.73;6.40;;;8.20;99.90;;;;;;2092529;28;20027;-70
2022/09/30 00:11:17;;;;;;;6.72;5.68;;;8.20;99.90;;;;;;2093848;28;20033;-70
2022/09/30 00:12:18;;;;;;;8.88;5.40;;;8.20;99.90;;;;;;2094173;28;20075;-71
2022/09/30 00:13:19;;;;;;;6.18;5.30;;;8.20;99.90;;;;;;2093589;28;20035;-70
2022/09/30 00:14:21;;;;;;;6.60;5.95;;;8.20;99.90;;;;;;2094034;28;20028;-71
2022/09/30 00:15:23;;;;;;;5.55;4.93;;;8.10;99.90;;;;;;2094561;28;20032;-71
2022/09/30 00:16:25;;;;;;;6.45;4.75;;;8.20;99.90;;;;;;2094525;28;20704;-71
2022/09/30 00:17:27;;;;;;;6.32;5.10;;;8.10;99.90;;;;;;2093025;28;20037;-70
2022/09/30 00:18:28;;;;;;;5.90;5.28;;;8.10;99.90;;;;;;2093379;28;20547;-70
2022/09/30 00:19:28;;;;;;;6.95;5.68;;;8.10;99.90;;;;;;2093975;28;20024;-70
2022/09/30 00:20:29;;;;;;;6.50;5.40;;;8.10;99.90;;;;;;2093667;28;20025;-70
2022/09/30 00:21:32;;;;;;;6.20;5.10;;;8.10;99.90;;;;;;2094148;28;20104;-70
2022/09/30 00:22:33;;;;;;;8.60;5.70;;;8.10;99.90;;;;;;2094187;28;20392;-70
2022/09/30 00:23:36;;;;;;;6.63;5.50;;;8.10;99.90;;;;;;2092341;28;20044;-70
2022/09/30 00:24:37;;;;;;;5.70;5.13;;;8.10;99.90;;;;;;2093484;28;20021;-71
2022/09/30 00:25:37;;;;;;;5.82;5.30;;;8.10;99.90;;;;;;2092893;28;20104;-71
2022/09/30 00:26:38;;;;;;;8.73;5.55;;;8.10;99.90;;;;;;2093309;28;20021;-70
2022/09/30 00:27:39;;;;;;;6.40;5.55;;;8.10;99.90;;;;;;2095918;28;20027;-70
2022/09/30 00:28:40;;;;;;;6.10;5.32;;;8.10;99.90;;;;;;2093669;28;20565;-70
2022/09/30 00:29:41;;;;;;;6.60;5.10;;;8.10;99.90;;;;;;2094189;28;20032;-70
2022/09/30 00:30:42;;;;;;;7.68;5.10;;;8.10;99.90;;;;;;2092370;28;20068;-70
2022/09/30 00:31:43;;;;;;;6.38;5.10;;;8.00;99.90;;;;;;2093774;28;20087;-70
2022/09/30 00:32:43;;;;;;;8.57;5.18;;;8.00;99.90;;;;;;2092659;28;20024;-70
2022/09/30 00:35:05;;;;;;;5.75;5.07;;;8.00;99.90;;;;;;2093412;28;20024;-70
2022/09/30 00:36:06;;;;;;;5.72;5.15;;;8.00;99.90;;;;;;2093169;28;20036;-70
2022/09/30 00:37:07;;;;;;;8.07;4.97;;;8.00;99.90;;;;;;2093586;28;20101;-70
2022/09/30 00:38:08;;;;;;;8.10;5.15;;;8.00;99.90;;;;;;2093656;28;20421;-71
2022/09/30 00:39:20;;;;;;;4.93;4.43;;;8.00;99.90;;;;;;2092924;28;20028;-71
2022/09/30 00:40:21;;;;;;;10.93;5.80;;;8.00;99.90;;;;;;2091911;28;20029;-70
2022/09/30 00:41:21;;;;;;;6.53;5.50;;;8.00;99.90;;;;;;2095724;28;20543;-70
2022/09/30 00:42:25;;;;;;;5.68;5.10;;;8.00;99.90;;;;;;2091440;28;20024;-70
2022/09/30 00:43:45;;;;;;;7.70;5.28;;;8.00;99.90;;;;;;2093934;28;20017;-70
2022/09/30 00:44:56;;;;;;;7.22;5.78;;;8.00;99.90;;;;;;2094258;28;20021;-70
2022/09/30 00:45:58;;;;;;;6.50;5.00;;;7.90;99.90;;;;;;2094267;28;21713;-70
2022/09/30 00:46:59;;;;;;;7.50;5.53;;;7.90;99.90;;;;;;2092813;28;20063;-70
2022/09/30 00:48:16;;;;;;;5.85;4.93;;;7.90;99.90;;;;;;2092065;28;20020;-71
2022/09/30 00:49:24;;;;;;;6.90;5.30;;;7.90;99.90;;;;;;2092439;28;20643;-70
2022/09/30 00:50:45;;;;;;;6.32;5.68;;;7.90;99.90;;;;;;2092120;28;20036;-70
2022/09/30 00:51:47;;;;;;;;;;;7.90;99.90;;;;;;2092280;28;20108;-71
2022/09/30 00:52:57;;;;;;;11.38;5.70;;;7.80;99.90;;;;;;2095151;28;19963;-71
2022/09/30 00:54:06;;;;;;;9.70;5.90;;;7.90;99.90;;;;;;2091680;28;20036;-70
2022/09/30 00:55:12;;;;;;;7.85;5.43;;;7.90;99.90;;;;;;2094553;28;20034;-71
2022/09/30 00:56:30;;;;;;;5.97;4.78;;;7.90;99.90;;;;;;2094530;28;20035;-70
2022/09/30 00:57:30;;;;;;;7.03;4.93;;;7.80;99.90;;;;;;2094054;28;20029;-70
2022/09/30 00:58:45;;;;;;;8.40;5.45;;;7.80;99.90;;;;;;2093665;28;20085;-70
2022/09/30 00:59:50;;;;;;;7.68;5.10;;;7.90;99.90;;;;;;2093686;28;20072;-70
2022/09/30 01:00:51;;;;;;;5.90;5.30;;;7.90;99.90;;;;;;2094935;28;20585;-70
2022/09/30 01:01:52;;;;;;;6.20;4.80;;;7.80;99.90;;;;;;2093408;28;20027;-70
2022/09/30 01:02:53;;;;;;;6.47;4.78;;;7.80;99.90;;;;;;2094613;28;20022;-70
2022/09/30 01:04:02;;;;;;;6.75;4.78;;;7.90;99.90;;;;;;2092957;28;20059;-70
2022/09/30 01:05:03;;;;;;;6.38;4.93;;;7.80;99.90;;;;;;2092543;28;20028;-70
2022/09/30 01:06:04;;;;;;;5.45;4.53;;;7.90;99.90;;;;;;2100743;28;20063;-70
2022/09/30 01:07:07;;;;;;;6.85;5.05;;;7.80;99.90;;;;;;2102750;28;20475;-70
2022/09/30 01:08:09;;;;;;;5.90;5.00;;;7.90;99.90;;;;;;2092192;28;20120;-70
2022/09/30 01:09:10;;;;;;;6.30;5.22;;;7.80;99.90;;;;;;2093890;28;20039;-70
2022/09/30 01:10:11;;;;;;;6.68;5.78;;;7.80;99.90;;;;;;2091170;28;20535;-70
2022/09/30 01:11:11;;;;;;;5.93;5.10;;;7.80;99.90;;;;;;2092086;28;20549;-70
2022/09/30 01:12:19;;;;;;;6.47;5.45;;;7.80;99.90;;;;;;2093518;28;20481;-70
2022/09/30 01:13:23;;;;;;;6.97;4.97;;;7.80;99.90;;;;;;2093774;28;20036;-70
2022/09/30 01:14:26;;;;;;;8.05;5.63;;;7.80;99.90;;;;;;2092540;28;20021;-70
2022/09/30 01:15:51;;;;;;;8.90;5.10;;;7.80;99.90;;;;;;2092137;28;20103;-70
2022/09/30 01:17:27;;;;;;;5.57;4.80;;;7.80;99.90;;;;;;2095215;28;20115;-70
2022/09/30 01:18:52;;;;;;;5.22;4.70;;;7.80;99.90;;;;;;2092353;28;20066;-70
2022/09/30 01:20:22;;;;;;;5.78;5.03;;;7.80;99.90;;;;;;2093871;28;20032;-71
2022/09/30 01:21:43;;;;;;;5.85;4.65;;;7.80;99.90;;;;;;2077755;28;20148;-70
2022/09/30 01:23:18;;;;;;;6.15;4.50;;;7.70;99.90;;;;;;2093207;28;20021;-70
2022/09/30 01:24:30;;;;;;;6.15;5.30;;;7.70;99.90;;;;;;2093678;28;20020;-70
2022/09/30 01:25:49;;;;;;;7.05;5.03;;;7.70;99.90;;;;;;2092198;28;20021;-70
2022/09/30 01:27:03;;;;;;;9.10;5.65;;;7.70;99.90;;;;;;2093791;28;20104;-70
2022/09/30 01:28:22;;;;;;;8.07;5.10;;;7.60;99.90;;;;;;2092582;28;20029;-70
2022/09/30 01:30:00;;;;;;;7.63;5.28;;;7.60;99.90;;;;;;2094133;28;20022;-70
2022/09/30 01:31:48;;;;;;;5.80;4.82;;;7.60;99.90;;;;;;2092425;28;20492;-70
2022/09/30 01:33:11;;;;;;;6.60;5.40;;;7.60;99.90;;;;;;2085226;28;20033;-70
2022/09/30 01:34:30;;;;;;;7.15;4.72;;;7.60;99.90;;;;;;2089612;28;20472;-70
2022/09/30 01:35:47;;;;;;;4.65;4.20;;;7.60;99.90;;;;;;2100261;28;20021;-70
2022/09/30 01:37:28;;;;;;;7.60;4.97;;;7.60;99.90;;;;;;2097627;28;20016;-70
2022/09/30 01:38:47;;;;;;;5.47;4.97;;;7.50;99.90;;;;;;2092401;28;20148;-70
2022/09/30 01:40:04;;;;;;;5.85;4.70;;;7.50;99.90;;;;;;2092880;28;20036;-70
2022/09/30 01:41:10;;;;;;;11.48;5.55;;;7.50;99.90;;;;;;2094463;28;20485;-70
2022/09/30 01:42:29;;;;;;;8.68;4.97;;;7.50;99.90;;;;;;2094047;28;20933;-70
2022/09/30 01:43:47;;;;;;;5.07;4.53;;;7.50;99.90;;;;;;2093092;28;20458;-70
2022/09/30 01:45:02;;;;;;;6.30;4.90;;;7.50;99.90;;;;;;2093228;28;20392;-70
2022/09/30 01:46:29;;;;;;;6.18;5.57;;;7.50;99.90;;;;;;2101642;28;20774;-70
2022/09/30 01:47:46;;;;;;;6.35;4.32;;;7.50;99.90;;;;;;2094504;28;20072;-70
2022/09/30 01:49:01;;;;;;;5.03;4.57;;;7.50;99.90;;;;;;2093219;28;20025;-70
2022/09/30 01:50:11;;;;;;;5.95;5.35;;;7.50;99.90;;;;;;2094434;28;20054;-70
2022/09/30 01:51:31;;;;;;;5.38;4.75;;;7.50;99.90;;;;;;2092258;28;20547;-70
2022/09/30 01:52:43;;;;;;;8.40;5.18;;;7.50;99.90;;;;;;2095508;28;20455;-70
2022/09/30 01:53:55;;;;;;;5.60;5.07;;;7.40;99.90;;;;;;2093161;28;20369;-70
2022/09/30 01:55:26;;;;;;;7.70;5.20;;;7.50;99.90;;;;;;2094920;28;20090;-70
2022/09/30 01:56:35;;;;;;;5.10;4.60;;;7.40;99.90;;;;;;2081210;28;20033;-70
2022/09/30 01:57:57;;;;;;;6.40;5.55;;;7.40;99.90;;;;;;2092504;28;20028;-70
2022/09/30 01:59:26;;;;;;;6.20;5.13;;;7.40;99.90;;;;;;2092640;28;20036;-70
2022/09/30 02:00:27;;;;;;;5.75;4.88;;;7.40;99.90;;;;;;2091763;28;20029;-70
2022/09/30 02:01:38;;;;;;;5.30;4.80;;;7.40;99.90;;;;;;2092694;28;20021;-70
2022/09/30 02:02:49;;;;;;;7.75;4.93;;;7.40;99.90;;;;;;2091082;28;20466;-70
2022/09/30 02:03:55;;;;;;;5.65;4.78;;;7.40;99.90;;;;;;2091071;28;20021;-70
2022/09/30 02:05:06;;;;;;;6.15;4.78;;;7.40;99.90;;;;;;2093807;28;20028;-70
2022/09/30 02:06:08;;;;;;;;;;;7.40;99.90;;;;;;2092727;28;20083;-70
2022/09/30 02:07:19;;;;;;;5.45;4.85;;;7.40;99.90;;;;;;2094393;28;19911;-70
2022/09/30 02:08:25;;;;;;;7.38;4.70;;;7.40;99.90;;;;;;2091336;28;20711;-70
2022/09/30 02:09:37;;;;;;;9.32;4.93;;;7.40;99.90;;;;;;2093476;28;20070;-70
2022/09/30 02:11:02;;;;;;;4.95;4.45;;;7.40;99.90;;;;;;2091299;28;20031;-70
2022/09/30 02:12:06;;;;;;;6.18;5.07;;;7.40;99.90;;;;;;2081241;28;20705;-70
2022/09/30 02:13:19;;;;;;;5.80;4.53;;;7.40;99.90;;;;;;2091441;28;20750;-70
2022/09/30 02:14:35;;;;;;;6.40;4.57;;;7.40;99.90;;;;;;2091604;28;20166;-70
2022/09/30 02:15:41;;;;;;;5.82;4.65;;;7.40;99.90;;;;;;2093181;28;20613;-70
2022/09/30 02:16:52;;;;;;;7.28;5.00;;;7.40;99.90;;;;;;2091917;28;20032;-70
2022/09/30 02:17:58;;;;;;;5.68;4.97;;;7.40;99.90;;;;;;2093070;28;20721;-70
2022/09/30 02:19:19;;;;;;;5.75;5.15;;;7.40;99.90;;;;;;2092868;28;20051;-70
2022/09/30 02:20:48;;;;;;;9.07;5.35;;;7.40;99.90;;;;;;2091550;28;20036;-70
2022/09/30 02:22:04;;;;;;;8.60;4.75;;;7.30;99.90;;;;;;2091271;28;20128;-70
2022/09/30 02:23:20;;;;;;;5.47;4.65;;;7.30;99.90;;;;;;2091997;28;20405;-70
2022/09/30 02:24:24;;;;;;;7.30;5.32;;;7.30;99.90;;;;;;2092838;28;20009;-70
2022/09/30 02:25:32;;;;;;;7.35;4.93;;;7.30;99.90;;;;;;2091898;28;20465;-70
2022/09/30 02:26:39;;;;;;;6.72;4.90;;;7.30;99.90;;;;;;2092596;28;20097;-70
2022/09/30 02:27:46;;;;;;;6.07;4.80;;;7.30;99.90;;;;;;2091271;28;20032;-70
2022/09/30 02:29:11;;;;;;;6.63;4.93;;;7.30;99.90;;;;;;2091564;28;20021;-70
2022/09/30 02:30:13;;;;;;;6.13;5.05;;;7.30;99.90;;;;;;2091259;28;20040;-70
2022/09/30 02:31:15;;;;;;;6.32;4.65;;;7.30;99.90;;;;;;2092958;28;20044;-70
2022/09/30 02:32:30;;;;;;;5.35;4.70;;;7.30;99.90;;;;;;2092948;28;20114;-71
2022/09/30 02:33:43;;;;;;;8.32;5.25;;;7.30;99.90;;;;;;2092196;28;20035;-70
2022/09/30 02:34:50;;;;;;;9.63;5.45;;;7.30;99.90;;;;;;2094762;28;20020;-70
2022/09/30 02:36:04;;;;;;;5.97;4.90;;;7.30;99.90;;;;;;2093408;28;20031;-70
2022/09/30 02:37:16;;;;;;;6.82;5.20;;;7.30;99.90;;;;;;2093240;28;20031;-70
2022/09/30 02:38:36;;;;;;;6.05;5.13;;;7.30;99.90;;;;;;2092060;28;20017;-70
2022/09/30 02:39:41;;;;;;;7.25;5.07;;;7.30;99.90;;;;;;2092222;28;20036;-70
2022/09/30 02:40:55;;;;;;;11.52;5.03;;;7.20;99.90;;;;;;2093283;28;20065;-70
2022/09/30 02:42:07;;;;;;;7.15;5.53;;;7.30;99.90;;;;;;2094249;28;20016;-70
2022/09/30 02:43:09;;;;;;;6.03;5.03;;;7.30;99.90;;;;;;2093402;28;20107;-70
2022/09/30 02:44:10;;;;;;;6.03;5.07;;;7.30;99.90;;;;;;2091757;28;20016;-70
2022/09/30 02:45:15;;;;;;;5.78;5.22;;;7.30;99.90;;;;;;2091851;28;20038;-70
2022/09/30 02:46:37;;;;;;;6.63;5.20;;;7.20;99.90;;;;;;2090150;28;20065;-70
2022/09/30 02:48:03;;;;;;;6.93;5.53;;;7.20;99.90;;;;;;2092984;28;20063;-70
2022/09/30 02:49:17;;;;;;;6.40;5.45;;;7.20;99.90;;;;;;2093215;28;20028;-70
2022/09/30 02:50:30;;;;;;;7.75;5.65;;;7.20;99.90;;;;;;2091800;28;20484;-70
2022/09/30 02:51:44;;;;;;;6.10;5.57;;;7.20;99.90;;;;;;2092102;28;20055;-70
2022/09/30 02:53:10;;;;;;;5.30;4.80;;;7.20;99.90;;;;;;2093386;28;20021;-70
2022/09/30 02:54:23;;;;;;;5.72;4.68;;;7.20;99.90;;;;;;2090938;28;20032;-69
2022/09/30 02:55:32;;;;;;;5.57;4.97;;;7.20;99.90;;;;;;2095624;28;20028;-70
2022/09/30 02:57:07;;;;;;;6.05;4.93;;;7.20;99.90;;;;;;2093166;28;20621;-69
2022/09/30 02:58:14;;;;;;;7.63;5.22;;;7.20;99.90;;;;;;2093114;28;20029;-69
2022/09/30 02:59:15;;;;;;;7.30;5.43;;;7.10;99.90;;;;;;2093133;28;20024;-69
2022/09/30 03:00:15;;;;;;;7.55;5.32;;;7.10;99.90;;;;;;2093135;28;20103;-69
2022/09/30 03:01:16;;;;;;;6.97;5.68;;;7.10;99.90;;;;;;2091599;28;20033;-70
2022/09/30 03:02:19;;;;;;;7.20;5.78;;;7.10;99.90;;;;;;2094138;28;20033;-70
2022/09/30 03:03:34;;;;;;;8.63;5.53;;;7.10;99.90;;;;;;2088488;28;20031;-69
2022/09/30 03:04:38;;;;;;;6.75;5.72;;;7.10;99.90;;;;;;2092161;28;20529;-69
2022/09/30 03:05:39;;;;;;;6.53;5.50;;;7.10;99.90;;;;;;2091219;28;20036;-69
2022/09/30 03:06:39;;;;;;;6.10;5.50;;;7.10;99.90;;;;;;2092950;28;20032;-69
2022/09/30 03:07:40;;;;;;;8.27;5.35;;;7.10;99.90;;;;;;2093009;28;20044;-69
2022/09/30 03:08:42;;;;;;;5.78;4.75;;;7.10;99.90;;;;;;2092835;28;20116;-69
2022/09/30 03:09:42;;;;;;;7.28;4.90;;;7.10;99.90;;;;;;2092732;28;20032;-69
2022/09/30 03:10:49;;;;;;;5.82;4.88;;;7.10;99.90;;;;;;2092783;28;20103;-69
2022/09/30 03:11:54;;;;;;;5.75;5.13;;;7.10;99.90;;;;;;2092625;28;20021;-69
2022/09/30 03:13:21;;;;;;;6.90;5.30;;;7.10;99.90;;;;;;2093766;28;20027;-69
2022/09/30 03:14:31;;;;;;;7.00;5.75;;;7.10;99.90;;;;;;2092706;28;20143;-69
2022/09/30 03:15:45;;;;;;;5.65;5.15;;;7.10;99.90;;;;;;2093086;28;20789;-69
2022/09/30 03:17:10;;;;;;;10.50;6.22;;;7.10;99.90;;;;;;2091485;28;20037;-69
2022/09/30 03:18:36;;;;;;;6.45;5.55;;;7.00;99.90;;;;;;2092790;28;20025;-69
2022/09/30 03:19:47;;;;;;;6.00;5.45;;;7.00;99.90;;;;;;2092260;28;20067;-70
2022/09/30 03:21:17;;;;;;;5.90;4.75;;;7.00;99.90;;;;;;2092765;28;20026;-69
2022/09/30 03:22:23;;;;;;;6.57;5.78;;;7.00;99.90;;;;;;2093521;28;20017;-69
2022/09/30 03:23:35;;;;;;;7.88;6.43;;;7.00;99.90;;;;;;2094041;28;20762;-69
2022/09/30 03:25:00;;;;;;;6.88;5.53;;;7.00;99.90;;;;;;2093075;28;20112;-69
2022/09/30 03:26:11;;;;;;;8.02;6.00;;;7.00;99.90;;;;;;2091781;28;20495;-70
2022/09/30 03:27:31;;;;;;;7.47;5.53;;;7.00;99.90;;;;;;2092502;28;20032;-70
2022/09/30 03:29:05;;;;;;;7.25;5.80;;;7.00;99.90;;;;;;2094883;28;20032;-70
2022/09/30 03:30:15;;;;;;;7.47;5.47;;;7.00;99.90;;;;;;2092596;28;20078;-69
2022/09/30 03:31:23;;;;;;;5.97;5.38;;;6.90;99.90;;;;;;2092675;28;20040;-69
2022/09/30 03:32:33;;;;;;;6.57;5.68;;;6.90;99.90;;;;;;2089965;28;20447;-69
2022/09/30 03:34:01;;;;;;;6.53;5.57;;;6.90;99.90;;;;;;2092695;28;20033;-69
2022/09/30 03:35:20;;;;;;;5.75;5.18;;;6.90;99.90;;;;;;2083411;28;20129;-69
2022/09/30 03:36:32;;;;;;;5.78;5.22;;;6.90;99.90;;;;;;2092885;28;20515;-69
2022/09/30 03:37:45;;;;;;;7.47;5.78;;;6.90;99.90;;;;;;2091230;28;20037;-69
2022/09/30 03:38:55;;;;;;;7.32;5.03;;;6.90;99.90;;;;;;2093536;28;20052;-69
2022/09/30 03:40:17;;;;;;;6.15;5.55;;;6.90;99.90;;;;;;2091147;28;20037;-69
2022/09/30 03:41:20;;;;;;;5.88;5.15;;;6.90;99.90;;;;;;2092316;28;20059;-69
2022/09/30 03:42:25;;;;;;;9.23;5.72;;;6.90;99.90;;;;;;2087493;28;20052;-69
2022/09/30 03:44:08;;;;;;;7.40;6.13;;;6.90;99.90;;;;;;2094929;28;20025;-69
2022/09/30 03:45:16;;;;;;;7.07;5.05;;;6.90;99.90;;;;;;2085397;28;20021;-69
2022/09/30 03:46:28;;;;;;;6.22;5.20;;;6.90;99.90;;;;;;2091508;28;20064;-69
2022/09/30 03:47:32;;;;;;;8.35;5.50;;;6.80;99.90;;;;;;2092961;28;20481;-69
2022/09/30 03:48:36;;;;;;;6.18;5.35;;;6.80;99.90;;;;;;2093086;28;20028;-69
2022/09/30 03:49:40;;;;;;;7.07;5.53;;;6.80;99.90;;;;;;2091234;28;20028;-69
2022/09/30 03:50:42;;;;;;;6.35;5.70;;;6.80;99.90;;;;;;2092139;28;20024;-69
2022/09/30 03:51:43;;;;;;;6.38;5.75;;;6.80;99.90;;;;;;2091009;28;20075;-69
2022/09/30 03:52:44;;;;;;;5.95;5.35;;;6.90;99.90;;;;;;2092479;28;20025;-69
2022/09/30 03:53:47;;;;;;;7.15;5.47;;;6.90;99.90;;;;;;2091136;28;20108;-69
2022/09/30 03:54:54;;;;;;;8.75;5.72;;;6.90;99.90;;;;;;2094378;28;20472;-69
2022/09/30 03:55:55;;;;;;;6.80;5.60;;;6.90;99.90;;;;;;2091902;28;20043;-69
2022/09/30 03:56:55;;;;;;;8.30;5.35;;;6.90;99.90;;;;;;2093387;28;20040;-69
2022/09/30 03:57:57;;;;;;;6.28;5.38;;;6.90;99.90;;;;;;2092718;28;20033;-69
2022/09/30 03:58:58;;;;;;;8.80;5.70;;;6.90;99.90;;;;;;2094146;28;20402;-69
2022/09/30 03:59:59;;;;;;;6.72;6.03;;;6.90;99.90;;;;;;2092767;28;20033;-69
2022/09/30 04:00:59;;;;;;;7.38;5.85;;;6.90;99.90;;;;;;2093471;28;20483;-70
2022/09/30 04:02:00;;;;;;;6.75;6.05;;;6.90;99.90;;;;;;2095605;28;20688;-69
2022/09/30 04:03:01;;;;;;;9.80;6.43;;;6.90;99.90;;;;;;2091442;28;20074;-69
2022/09/30 04:04:01;;;;;;;8.48;6.13;;;6.90;99.90;;;;;;2091372;28;20098;-69
2022/09/30 04:05:03;;;;;;;6.53;5.82;;;6.90;99.90;;;;;;2091541;28;20078;-69
2022/09/30 04:06:03;;;;;;;8.95;6.93;;;6.90;99.90;;;;;;2090976;28;20024;-69
2022/09/30 04:07:04;;;;;;;6.70;5.70;;;6.80;99.90;;;;;;2092992;28;20025;-69
2022/09/30 04:08:05;;;;;;;7.82;5.80;;;6.80;99.90;;;;;;2092725;28;20031;-69
2022/09/30 04:09:05;;;;;;;6.15;5.57;;;6.80;99.90;;;;;;2091965;28;20021;-70
2022/09/30 04:10:06;;;;;;;9.63;6.13;;;6.80;99.90;;;;;;2092357;28;20503;-70
2022/09/30 04:11:07;;;;;;;6.75;6.07;;;6.80;99.90;;;;;;2090515;28;20024;-70
2022/09/30 04:12:08;;;;;;;7.05;5.38;;;6.80;99.90;;;;;;2093194;28;20038;-70
2022/09/30 04:13:09;;;;;;;7.95;5.80;;;6.80;99.90;;;;;;2091340;28;20033;-70
2022/09/30 04:14:10;;;;;;;8.05;6.07;;;6.80;99.90;;;;;;2092651;28;20930;-69
2022/09/30 04:15:10;;;;;;;11.63;5.80;;;6.80;99.90;;;;;;2091962;28;20451;-69
2022/09/30 04:16:11;;;;;;;8.45;6.05;;;6.80;99.90;;;;;;2091752;28;20029;-69
2022/09/30 04:17:11;;;;;;;7.57;5.68;;;6.80;99.90;;;;;;2091415;28;20061;-69
2022/09/30 04:18:12;;;;;;;6.10;5.45;;;6.80;99.90;;;;;;2091985;28;20024;-69
2022/09/30 04:19:12;;;;;;;7.28;5.07;;;6.80;99.90;;;;;;2091720;28;20101;-69
2022/09/30 04:20:13;;;;;;;5.40;4.93;;;6.80;99.90;;;;;;2092881;28;20401;-69
2022/09/30 04:21:14;;;;;;;6.97;5.55;;;6.80;99.90;;;;;;2092716;28;20052;-70
2022/09/30 04:22:15;;;;;;;6.55;5.75;;;6.80;99.90;;;;;;2093624;28;20055;-70
2022/09/30 04:23:16;;;;;;;7.45;5.63;;;6.80;99.90;;;;;;2090127;28;20104;-70
2022/09/30 04:24:16;;;;;;;7.72;5.43;;;6.80;99.90;;;;;;2090672;28;20476;-69
2022/09/30 04:25:17;;;;;;;7.25;5.13;;;6.80;99.90;;;;;;2092509;28;20107;-70
2022/09/30 04:26:20;;;;;;;6.90;5.63;;;6.80;99.90;;;;;;2094253;28;20039;-70
2022/09/30 04:27:21;;;;;;;6.50;5.30;;;6.80;99.90;;;;;;2092249;28;20756;-69
2022/09/30 04:28:22;;;;;;;5.95;5.28;;;6.80;99.90;;;;;;2095085;28;20037;-70
2022/09/30 04:29:23;;;;;;;7.30;5.75;;;6.80;99.90;;;;;;2091036;28;20040;-70
2022/09/30 04:30:23;;;;;;;7.07;4.90;;;6.80;99.90;;;;;;2092804;28;20029;-69
2022/09/30 04:31:24;;;;;;;9.05;5.97;;;6.80;99.90;;;;;;2093491;28;20430;-69
2022/09/30 04:32:24;;;;;;;6.70;5.90;;;6.80;99.90;;;;;;2094868;28;20094;-69
2022/09/30 04:33:25;;;;;;;6.70;5.00;;;6.70;99.90;;;;;;2093671;28;20037;-69
2022/09/30 04:34:26;;;;;;;6.97;6.00;;;6.70;99.90;;;;;;2093356;28;20067;-69
2022/09/30 04:35:28;;;;;;;10.05;5.93;;;6.70;99.90;;;;;;2093715;28;20036;-69
2022/09/30 04:36:29;;;;;;;6.25;5.57;;;6.70;99.90;;;;;;2093035;28;20025;-70
2022/09/30 04:37:30;;;;;;;8.90;6.38;;;6.70;99.90;;;;;;2096466;28;20064;-69
2022/09/30 04:38:32;;;;;;;6.97;5.88;;;6.70;99.90;;;;;;2093757;28;20056;-69
2022/09/30 04:39:32;;;;;;;6.82;5.28;;;6.70;99.90;;;;;;2094894;28;20078;-69
2022/09/30 04:40:37;;;;;;;6.57;5.95;;;6.70;99.90;;;;;;2092441;28;20736;-69
2022/09/30 04:41:39;;;;;;;7.30;5.93;;;6.70;99.90;;;;;;2092839;28;20021;-70
2022/09/30 04:42:41;;;;;;;8.52;6.90;;;6.70;99.90;;;;;;2093861;28;20573;-69
2022/09/30 04:43:47;;;;;;;7.80;5.80;;;6.70;99.90;;;;;;2091274;28;20029;-69
2022/09/30 04:44:47;;;;;;;7.40;6.57;;;6.70;99.90;;;;;;2093684;28;20037;-69
2022/09/30 04:45:49;;;;;;;7.50;6.07;;;6.70;99.90;;;;;;2093261;28;20021;-69
2022/09/30 04:46:50;;;;;;;6.93;5.47;;;6.70;99.90;;;;;;2092300;28;20528;-69
2022/09/30 04:47:51;;;;;;;8.05;5.95;;;6.70;99.90;;;;;;2093935;28;20358;-69
2022/09/30 04:48:51;;;;;;;8.38;6.43;;;6.70;99.90;;;;;;2093536;28;20029;-69
2022/09/30 04:49:52;;;;;;;7.65;5.47;;;6.60;99.90;;;;;;2094346;28;20033;-70
2022/09/30 04:50:52;;;;;;;5.50;5.00;;;6.60;99.90;;;;;;2090764;28;20064;-70
2022/09/30 04:51:53;;;;;;;8.35;5.82;;;6.60;99.90;;;;;;2093493;28;20089;-70
2022/09/30 04:52:56;;;;;;;7.05;6.00;;;6.70;99.90;;;;;;2093131;28;20788;-69
2022/09/30 04:53:56;;;;;;;8.32;6.13;;;6.60;99.90;;;;;;2092872;28;20028;-69
2022/09/30 04:54:57;;;;;;;7.03;5.78;;;6.60;99.90;;;;;;2092686;28;20032;-69
2022/09/30 04:55:59;;;;;;;6.93;6.22;;;6.70;99.90;;;;;;2092714;28;20025;-69
2022/09/30 04:57:00;;;;;;;6.70;5.93;;;6.60;99.90;;;;;;2092941;28;20484;-69
2022/09/30 04:58:00;;;;;;;6.72;5.72;;;6.60;99.90;;;;;;2092556;28;20068;-70
2022/09/30 04:59:01;;;;;;;8.35;6.57;;;6.60;99.90;;;;;;2093593;28;20110;-70
2022/09/30 05:00:03;;;;;;;6.75;5.95;;;6.60;99.90;;;;;;2095321;28;20036;-70
2022/09/30 05:01:06;;;;;;;6.82;6.13;;;6.60;99.90;;;;;;2092818;28;20472;-69
2022/09/30 05:02:08;;;;;;;6.88;5.85;;;6.60;99.90;;;;;;2092989;28;20024;-69
2022/09/30 05:03:09;;;;;;;7.00;5.82;;;6.60;99.90;;;;;;2094220;28;20013;-69
2022/09/30 05:04:15;;;;;;;7.18;5.80;;;6.60;99.90;;;;;;2092838;28;20108;-69
2022/09/30 05:05:16;;;;;;;7.28;6.55;;;6.60;99.90;;;;;;2094524;28;20025;-69
2022/09/30 05:06:17;;;;;;;7.57;6.00;;;6.60;99.90;;;;;;2092509;28;20104;-69
2022/09/30 05:07:18;;;;;;;7.20;5.80;;;6.60;99.90;;;;;;2094105;28;20032;-69
2022/09/30 05:08:18;;;;;;;7.93;6.18;;;6.60;99.90;;;;;;2092750;28;20102;-70
2022/09/30 05:09:19;;;;;;;6.88;6.13;;;6.60;99.90;;;;;;2092176;28;20079;-70
2022/09/30 05:10:20;;;;;;;7.53;6.75;;;6.60;99.90;;;;;;2091838;28;20071;-70
2022/09/30 05:11:21;;;;;;;8.70;6.75;;;6.60;99.90;;;;;;2091865;28;20104;-70
2022/09/30 05:12:22;;;;;;;6.70;6.00;;;6.60;99.90;;;;;;2093879;28;20060;-70
2022/09/30 05:13:34;;;;;;;8.77;5.85;;;6.60;99.90;;;;;;2093190;28;20111;-69
2022/09/30 05:14:35;;;;;;;8.98;6.15;;;6.60;99.90;;;;;;2093254;28;20027;-69
2022/09/30 05:15:35;;;;;;;8.10;6.03;;;6.60;99.90;;;;;;2091765;28;20036;-69
2022/09/30 05:16:36;;;;;;;10.48;6.65;;;6.60;99.90;;;;;;2094034;28;20511;-70
2022/09/30 05:17:36;;;;;;;9.23;6.57;;;6.60;99.90;;;;;;2092128;28;20074;-70
2022/09/30 05:18:39;;;;;;;6.53;5.93;;;6.60;99.90;;;;;;2093811;28;20501;-69
2022/09/30 05:19:40;;;;;;;7.13;6.45;;;6.60;99.90;;;;;;2092511;28;20021;-69
2022/09/30 05:20:41;;;;;;;9.95;7.00;;;6.60;99.90;;;;;;2093749;28;20063;-69
2022/09/30 05:21:43;;;;;;;9.95;6.93;;;6.50;99.90;;;;;;2094745;28;20020;-70
2022/09/30 05:22:44;;;;;;;6.65;5.72;;;6.60;99.90;;;;;;2092085;28;20009;-70
2022/09/30 05:23:45;;;;;;;10.73;7.20;;;6.50;99.90;;;;;;2091577;28;20155;-69
2022/09/30 05:24:46;;;;;;;8.27;7.10;;;6.50;99.90;;;;;;2091092;28;20033;-69
2022/09/30 05:25:47;;;;;;;7.78;6.30;;;6.50;99.90;;;;;;2100600;28;20086;-69
2022/09/30 05:26:47;;;;;;;7.00;6.28;;;6.50;99.90;;;;;;2099864;28;20028;-69
2022/09/30 05:27:51;;;;;;;7.60;6.10;;;6.50;99.90;;;;;;2092808;28;20032;-69
2022/09/30 05:28:52;;;;;;;7.03;5.60;;;6.60;99.90;;;;;;2092013;28;20093;-70
2022/09/30 05:29:52;;;;;;;8.65;7.18;;;6.50;99.90;;;;;;2092319;28;20029;-70
2022/09/30 05:30:58;;;;;;;8.52;6.75;;;6.60;99.90;;;;;;2094413;28;20085;-70
2022/09/30 05:31:59;;;;;;;8.45;6.10;;;6.60;99.90;;;;;;2089656;28;20025;-70
2022/09/30 05:33:00;;;;;;;6.93;6.22;;;6.50;99.90;;;;;;2090012;28;20700;-70
2022/09/30 05:34:00;;;;;;;6.75;6.07;;;6.50;99.90;;;;;;2092061;28;20376;-69
2022/09/30 05:35:02;;;;;;;8.13;6.68;;;6.50;99.90;;;;;;2099233;28;20027;-69
2022/09/30 05:36:05;;;;;;;8.23;6.38;;;6.50;99.90;;;;;;2098791;28;20623;-69
2022/09/30 05:37:08;;;;;;;9.85;6.72;;;6.50;99.90;;;;;;2090235;28;20841;-69
2022/09/30 05:38:09;;;;;;;7.47;6.70;;;6.50;99.90;;;;;;2090653;28;20016;-69
2022/09/30 05:39:10;;;;;;;8.27;7.03;;;6.50;99.90;;;;;;2091414;28;20021;-69
2022/09/30 05:40:11;;;;;;;8.00;6.90;;;6.60;99.90;;;;;;2090803;28;20024;-69
2022/09/30 05:41:13;;;;;;;9.98;7.03;;;6.60;99.90;;;;;;2090381;28;20099;-69
2022/09/30 05:42:13;;;;;;;8.63;7.20;;;6.50;99.90;;;;;;2091059;28;20108;-70
2022/09/30 05:43:14;;;;;;;8.43;7.47;;;6.60;99.90;;;;;;2090846;28;20035;-69
2022/09/30 05:44:14;;;;;;;6.45;5.82;;;6.50;99.90;;;;;;2089484;28;20024;-69
2022/09/30 05:45:15;;;;;;;8.45;6.82;;;6.60;99.90;;;;;;2091676;28;20028;-69
2022/09/30 05:46:17;;;;;;;11.18;7.45;;;6.60;99.90;;;;;;2091189;28;20020;-69
2022/09/30 05:47:18;;;;;;;9.40;6.43;;;6.50;99.90;;;;;;2091865;28;20064;-69
2022/09/30 05:48:19;;;;;;;8.60;7.60;;;6.50;99.90;;;;;;2092365;28;20017;-69
2022/09/30 05:49:20;;;;;;;9.52;7.35;;;6.60;99.90;;;;;;2090748;28;20040;-69
2022/09/30 05:50:22;;;;;;;8.27;7.47;;;6.60;99.90;;;;;;2095866;28;20580;-69
2022/09/30 05:51:23;;;;;;;11.82;7.82;;;6.60;99.90;;;;;;2094768;28;20028;-69
2022/09/30 05:52:24;;;;;;;8.15;7.10;;;6.60;99.90;;;;;;2092256;28;20040;-69
2022/09/30 05:53:25;;;;;;;9.57;7.30;;;6.60;99.90;;;;;;2091153;28;20587;-69
2022/09/30 05:54:26;;;;;;;9.80;8.32;;;6.60;99.90;;;;;;2090965;28;20021;-69